^^
Datos históricos de la estación: Murcia-Puente Tocinos
Diario Informe para Diciembre 28, 2019 Unidades:  Ingés    Métrico   Ambas
Diario Semanal Mensual Anual
  Máxima: Mínima: Promedio:
Temperatura: 61.2 °F 43.3 °F 51.1 °F
Punto de rocio: 51.3 °F 42.1 °F 46.4 °F
Humedad: 97% 65.5% 85%
Velocidad viento: 10mph 0mph 3.5mph
Racha viento: 17.5mph - -
Viento- - ESE
Presión: 30.4 in 30.3 in -
Precipitación: 0 in    
 
 
Tabla de datos para Diciembre 28, 2019
Hora Temperatura Punto de rocio Presión Viento Velocidad viento Racha viento Humedad Intensidad lluvia(por hora) Nubes
00:04 49.3 °F 46 °F 30.4 in ENE 2.5 mph 5 mph 88.3% 0 in
00:09 49.3 °F 46.2 °F 30.4 in ENE 2.4 mph 4 mph 89% 0 in
00:14 49.3 °F 46.2 °F 30.4 in ENE 1.8 mph 2.9 mph 89% 0 in
00:19 49.5 °F 46.4 °F 30.4 in ENE 1.4 mph 3 mph 89% 0 in
00:24 49.5 °F 46.2 °F 30.4 in ENE 1.4 mph 3 mph 89% 0 in
00:29 49.3 °F 46.2 °F 30.4 in ENE 1.4 mph 3.6 mph 89% 0 in
00:34 49.3 °F 46.2 °F 30.4 in ENE 1.4 mph 4 mph 89% 0 in
00:39 49.1 °F 46 °F 30.4 in ENE 1.4 mph 4 mph 89% 0 in
00:44 48.9 °F 45.9 °F 30.3 in Este 1.7 mph 5 mph 89% 0 in
00:49 48.9 °F 45.9 °F 30.3 in SE 2 mph 5 mph 89% 0 in
00:54 48.9 °F 45.9 °F 30.3 in SE 2 mph 3.5 mph 89% 0 in
00:59 48.9 °F 45.9 °F 30.3 in SE 2 mph 3.5 mph 89% 0 in
01:04 48.9 °F 45.9 °F 30.3 in SE 1.9 mph 3 mph 89% 0 in
01:09 48.9 °F 45.7 °F 30.3 in SE 1.8 mph 2.4 mph 88.6% 0 in
01:14 48.7 °F 45.3 °F 30.3 in SE 0.7 mph 3.6 mph 88% 0 in
01:19 48.2 °F 44.6 °F 30.3 in Calm   4.6 mph 87.1% 0 in
01:24 47.8 °F 44.4 °F 30.3 in NNO 1.4 mph 5 mph 87.9% 0 in
01:29 47.5 °F 44.2 °F 30.3 in NO 2.4 mph 5 mph 88.4% 0 in
01:34 47.1 °F 44.1 °F 30.3 in NO 2.4 mph 5 mph 89% 0 in
01:39 46.9 °F 44.2 °F 30.3 in NO 2.4 mph 3 mph 89.9% 0 in
01:44 46.9 °F 44.2 °F 30.3 in NO 1.8 mph 2.3 mph 90% 0 in
01:49 46.9 °F 44.4 °F 30.3 in NO 1.4 mph   90.8% 0 in
01:54 47.1 °F 44.6 °F 30.3 in NO 0.6 mph 2 mph 91% 0 in
01:59 47.3 °F 45 °F 30.3 in Calm   2.4 mph 92% 0 in
02:04 47.5 °F 45.3 °F 30.3 in Calm   2.4 mph 92% 0 in
02:09 47.7 °F 45.5 °F 30.3 in Calm   2.9 mph 92% 0 in
02:14 47.7 °F 45.5 °F 30.3 in NO 0.8 mph 3.5 mph 92% 0 in
02:19 47.8 °F 45.5 °F 30.3 in ONO 1.4 mph 4.6 mph 92% 0 in
02:24 47.8 °F 45.5 °F 30.3 in Sur 1.7 mph 5 mph 91.7% 0 in
02:29 47.7 °F 45.1 °F 30.3 in SSE 2 mph 4.6 mph 91% 0 in
02:34 47.7 °F 45.1 °F 30.3 in SSE 2 mph 5 mph 91% 0 in
02:39 47.7 °F 45.1 °F 30.3 in SE 2 mph 4.6 mph 90.8% 0 in
02:44 47.3 °F 44.6 °F 30.3 in SE 2 mph 5 mph 90% 0 in
02:49 47.1 °F 44.2 °F 30.3 in SE 2 mph 5 mph 90% 0 in
02:54 47.1 °F 44.2 °F 30.3 in SSE 2 mph 4.6 mph 90% 0 in
02:59 47.1 °F 44.2 °F 30.3 in Sur 2 mph 5 mph 90% 0 in
03:04 46.9 °F 44.2 °F 30.3 in Sur 2 mph 3 mph 90% 0 in
03:09 46.8 °F 44.1 °F 30.3 in Sur 2 mph 2.3 mph 90% 0 in
03:14 46.6 °F 43.9 °F 30.3 in Sur 0.8 mph 4.6 mph 89.9% 0 in
03:19 46.2 °F 43.2 °F 30.3 in Calm   5 mph 89% 0 in
03:24 45.9 °F 43 °F 30.3 in NO 1.2 mph 5 mph 89.6% 0 in
03:29 45.7 °F 43 °F 30.3 in NNE 2 mph 4.6 mph 90% 0 in
03:34 45.7 °F 43.2 °F 30.3 in NNE 2.2 mph 5 mph 90.7% 0 in
03:39 45.7 °F 43.2 °F 30.4 in NNE 2.4 mph 3.5 mph 91% 0 in
03:44 45.7 °F 43.2 °F 30.4 in NNE 2.1 mph 3 mph 91% 0 in
03:49 45.7 °F 43.3 °F 30.4 in NNE 1.8 mph 3 mph 91.2% 0 in
03:54 45.7 °F 43.5 °F 30.4 in NNE 0.7 mph 2.3 mph 92% 0 in
03:59 45.7 °F 43.5 °F 30.4 in Calm   3.1 mph 92% 0 in
04:04 45.7 °F 43.5 °F 30.4 in NNE 0.9 mph 4.6 mph 91.9% 0 in
04:09 45.7 °F 43.5 °F 30.4 in SSO 1.4 mph 5.2 mph 91.9% 0 in
04:14 45.7 °F 43.5 °F 30.4 in SSE 2.4 mph 5 mph 92% 0 in
04:19 45.9 °F 43.7 °F 30.4 in SSE 3.1 mph 5 mph 92% 0 in
04:24 45.9 °F 43.7 °F 30.4 in SE 3 mph 5 mph 92% 0 in
04:29 45.9 °F 43.7 °F 30.4 in Este 2.9 mph 4 mph 92% 0 in
04:34 45.9 °F 43.5 °F 30.4 in Este 2.2 mph 3 mph 91.5% 0 in
04:39 45.9 °F 43.3 °F 30.4 in Este 1.8 mph 3.5 mph 91% 0 in
04:44 45.7 °F 43.2 °F 30.4 in ESE 1.9 mph 4.6 mph 91% 0 in
04:49 45.3 °F 42.6 °F 30.4 in SE 2 mph 5 mph 90.1% 0 in
04:54 45.1 °F 42.4 °F 30.4 in ESE 2.2 mph 5 mph 90.4% 0 in
04:59 45 °F 42.3 °F 30.4 in SE 2.4 mph 4.6 mph 90% 0 in
05:04 45 °F 42.1 °F 30.4 in Sur 2.4 mph 5.2 mph 90% 0 in
05:09 44.8 °F 42.3 °F 30.4 in Sur 2.4 mph 5 mph 91% 0 in
05:14 45 °F 42.4 °F 30.4 in Sur 2.8 mph 5 mph 91% 0 in
05:19 45 °F 42.6 °F 30.4 in SSE 3.1 mph 5 mph 91% 0 in
05:24 45.1 °F 42.8 °F 30.4 in SSE 2.4 mph 5.2 mph 91% 0 in
05:29 45.3 °F 43.2 °F 30.4 in SSE 2 mph 5.9 mph 91.8% 0 in
05:34 45.3 °F 42.8 °F 30.4 in SE 3 mph 6 mph 91.1% 0 in
05:39 45 °F 42.8 °F 30.4 in SE 3.6 mph 6 mph 91.7% 0 in
05:44 45 °F 43 °F 30.4 in SE 3.3 mph 5 mph 92.7% 0 in
05:49 45 °F 43.2 °F 30.4 in SE 3.1 mph 5 mph 93% 0 in
05:54 45 °F 43.2 °F 30.4 in SE 3.1 mph 5.4 mph 93% 0 in
05:59 44.8 °F 43 °F 30.4 in SE 3.1 mph 6 mph 93% 0 in
06:04 44.8 °F 43.2 °F 30.4 in SE 3.1 mph 6 mph 94% 0 in
06:09 44.8 °F 43.2 °F 30.4 in SE 3.1 mph 6 mph 94% 0 in
06:14 44.8 °F 43.3 °F 30.4 in SE 3 mph 6 mph 94.6% 0 in
06:19 45 °F 43.5 °F 30.4 in SSE 2.9 mph 5.9 mph 94.7% 0 in
06:24 45 °F 43.5 °F 30.4 in Sur 3 mph 6 mph 95% 0 in
06:29 45 °F 43.7 °F 30.4 in SSE 3.1 mph 6 mph 95% 0 in
06:34 45.1 °F 43.7 °F 30.4 in SSE 3.4 mph 5.8 mph 95% 0 in
06:39 45.1 °F 43.9 °F 30.4 in Sur 3.6 mph 6 mph 95% 0 in
06:44 45.3 °F 44.1 °F 30.4 in SSE 3.3 mph 5.2 mph 95.4% 0 in
06:49 45.3 °F 44.1 °F 30.4 in SSE 3.1 mph 5 mph 95.5% 0 in
06:54 45.3 °F 44.2 °F 30.4 in Sur 3.1 mph 5 mph 96% 0 in
06:59 45.3 °F 44.2 °F 30.4 in SSE 3.1 mph 5 mph 96% 0 in
07:04 45.5 °F 44.2 °F 30.4 in SSE 3 mph 5 mph 96% 0 in
07:09 45.7 °F 44.6 °F 30.4 in SE 2.9 mph 5 mph 96% 0 in
07:14 45.7 °F 44.6 °F 30.4 in SSE 2.4 mph 4 mph 96% 0 in
07:19 45.7 °F 44.6 °F 30.4 in SE 2 mph 4.7 mph 96% 0 in
07:24 45.3 °F 44.2 °F 30.4 in SSE 2.5 mph 5.2 mph 96% 0 in
07:29 45.1 °F 44.1 °F 30.4 in SSE 2.9 mph 5.8 mph 96% 0 in
07:34 45 °F 43.9 °F 30.4 in SSE 3.3 mph 6 mph 96% 0 in
07:39 45 °F 43.9 °F 30.4 in SSE 3.6 mph 5 mph 96% 0 in
07:44 45 °F 43.9 °F 30.4 in SE 3.2 mph 5 mph 96% 0 in
07:49 44.8 °F 43.7 °F 30.4 in SE 2.9 mph 4.6 mph 96% 0 in
07:54 44.6 °F 43.5 °F 30.4 in SE 2.6 mph 5 mph 96% 0 in
07:59 44.4 °F 43.3 °F 30.4 in SE 2.4 mph 3.1 mph 96% 0 in
08:04 44.4 °F 43.3 °F 30.4 in SSE 1.7 mph 3.6 mph 96% 0 in
08:09 44.4 °F 43.5 °F 30.4 in OSO 1.4 mph 4.6 mph 96.5% 0 in
08:14 44.6 °F 43.7 °F 30.4 in OSO 1.7 mph 5 mph 96.9% 0 in
08:19 44.4 °F 43.5 °F 30.4 in OSO 2 mph 5.2 mph 96% 0 in
08:24 44.4 °F 43.3 °F 30.4 in SO 2.5 mph 5 mph 96% 0 in
08:29 44.4 °F 43.3 °F 30.4 in SO 2.9 mph 5 mph 96% 0 in
08:34 44.4 °F 43.3 °F 30.4 in OSO 2.6 mph 4.6 mph 96% 0 in
08:39 44.2 °F 43.2 °F 30.4 in SSO 2.4 mph 5.2 mph 96% 0 in
08:44 43.7 °F 42.6 °F 30.4 in SSE 2.7 mph 5.9 mph 96% 0 in
08:49 43.3 °F 42.4 °F 30.4 in SSE 2.9 mph 6 mph 96% 0 in
08:54 43.3 °F 42.3 °F 30.4 in SSE 3.5 mph 6.9 mph 96% 0 in
08:59 43.3 °F 42.3 °F 30.4 in Sur 4 mph 7 mph 96.1% 0 in
09:04 43.3 °F 42.4 °F 30.4 in Sur 4.5 mph 7 mph 96.4% 0 in
09:09 43.3 °F 42.4 °F 30.4 in Sur 4.7 mph 6.9 mph 96.8% 0 in
09:14 43.5 °F 42.6 °F 30.4 in SSO 4.3 mph 7 mph 96.5% 0 in
09:19 43.5 °F 42.6 °F 30.4 in SSO 4 mph 7 mph 96.9% 0 in
09:24 43.7 °F 43 °F 30.4 in SSO 4.4 mph 7 mph 97% 0 in
09:29 44.1 °F 43 °F 30.4 in Sur 4.7 mph 7 mph 96.5% 0 in
09:34 44.1 °F 43 °F 30.4 in Sur 4.5 mph 6 mph 96% 0 in
09:39 44.1 °F 43.2 °F 30.4 in SSO 4.3 mph 6 mph 96% 0 in
09:44 44.2 °F 43.3 °F 30.4 in Sur 3.4 mph 5 mph 96% 0 in
09:49 44.6 °F 43.3 °F 30.4 in Oeste 2.9 mph 5.2 mph 95% 0 in
09:54 44.8 °F 43.3 °F 30.4 in SO 2.4 mph 5 mph 94.2% 0 in
09:59 45 °F 43.2 °F 30.4 in SSO 2 mph 5.9 mph 93.6% 0 in
10:04 45.1 °F 43.2 °F 30.4 in SSO 3 mph 6.2 mph 92.6% 0 in
10:09 45.5 °F 43.3 °F 30.4 in SSO 3.6 mph 6 mph 91.8% 0 in
10:14 46 °F 43.3 °F 30.4 in SSO 3.6 mph 6 mph 90.6% 0 in
10:19 46.4 °F 43.3 °F 30.4 in SSO 3.6 mph 6.9 mph 89.4% 0 in
10:24 46.8 °F 43.3 °F 30.4 in SO 4 mph 7 mph 88.2% 0 in
10:29 47.1 °F 43.5 °F 30.4 in SSO 4.3 mph 7 mph 87.4% 0 in
10:34 47.5 °F 43.3 °F 30.4 in OSO 3.9 mph 8.1 mph 85.9% 0 in
10:39 47.7 °F 43.3 °F 30.4 in SSO 3.6 mph 8.1 mph 85.1% 0 in
10:44 47.8 °F 43.5 °F 30.4 in SO 4.3 mph 8 mph 84.8% 0 in
10:49 48 °F 43.7 °F 30.4 in SSO 4.7 mph 7 mph 85% 0 in
10:54 48.6 °F 43.9 °F 30.4 in SSO 4.5 mph 7.4 mph 84.1% 0 in
10:59 48.7 °F 44.1 °F 30.4 in Sur 4.3 mph 8.1 mph 83.8% 0 in
11:04 49.1 °F 44.2 °F 30.4 in SSO 4.9 mph 8 mph 83% 0 in
11:09 49.5 °F 44.6 °F 30.4 in Sur 5.2 mph 6.2 mph 83.1% 0 in
11:14 50 °F 44.8 °F 30.4 in Sur 4.5 mph 8.1 mph 82% 0 in
11:19 50.4 °F 44.6 °F 30.4 in Sur 4 mph 8.1 mph 80.9% 0 in
11:24 50.5 °F 44.6 °F 30.4 in Sur 4.4 mph 8.1 mph 80.6% 0 in
11:29 50.5 °F 44.6 °F 30.4 in SSO 4.7 mph 8.1 mph 80% 0 in
11:34 50.7 °F 45 °F 30.4 in Sur 5.1 mph 8 mph 80.2% 0 in
11:39 51.3 °F 45.3 °F 30.4 in SSO 5.4 mph 7 mph 80% 0 in
11:44 51.4 °F 45.3 °F 30.4 in SSO 5 mph 7.4 mph 79.1% 0 in
11:49 52 °F 45.5 °F 30.4 in SSO 4.7 mph 7 mph 78.5% 0 in
11:54 52.3 °F 45.7 °F 30.4 in SSO 4 mph 6 mph 78% 0 in
11:59 53.1 °F 45.9 °F 30.4 in SO 3.6 mph 5 mph 76.2% 0 in
12:04 53.6 °F 45.9 °F 30.4 in SO 2.4 mph 5.4 mph 74.8% 0 in
12:09 54 °F 45.9 °F 30.4 in SSO 1.8 mph 6 mph 73.9% 0 in
12:14 54.5 °F 46 °F 30.4 in SSE 1.9 mph 4 mph 73% 0 in
12:19 55 °F 45.9 °F 30.4 in SSO 2 mph 4 mph 71.2% 0 in
12:24 55.2 °F 46 °F 30.4 in SSO 1.9 mph 3 mph 71% 0 in
12:29 55.9 °F 46.2 °F 30.4 in SE 1.8 mph 3.6 mph 69.9% 0 in
12:34 56.7 °F 46.4 °F 30.4 in ESE 1.6 mph 4 mph 68.4% 0 in
12:39 57.2 °F 46.4 °F 30.4 in ENE 1.4 mph 4.7 mph 67.5% 0 in
12:44 57.6 °F 46.6 °F 30.4 in ENE 1.7 mph 5 mph 67% 0 in
12:49 57.7 °F 46.6 °F 30.4 in ENE 2 mph 5.2 mph 66.4% 0 in
12:54 57.6 °F 46.6 °F 30.4 in NE 2.2 mph 6.9 mph 66.3% 0 in
12:59 57.4 °F 46.9 °F 30.4 in NE 2.4 mph 7 mph 67.9% 0 in
13:04 57.4 °F 46.9 °F 30.4 in NE 2.9 mph 7 mph 68% 0 in
13:09 57.6 °F 47.1 °F 30.4 in NE 3.1 mph 5.9 mph 68% 0 in
13:14 57.7 °F 47.1 °F 30.4 in NE 3.1 mph 6 mph 68% 0 in
13:19 57.9 °F 47.5 °F 30.4 in NNE 3.1 mph 6.2 mph 68% 0 in
13:24 58.1 °F 47.5 °F 30.4 in NNE 3.1 mph 6 mph 67.8% 0 in
13:29 58.5 °F 47.8 °F 30.4 in NE 3.1 mph 6.2 mph 68% 0 in
13:34 58.6 °F 48 °F 30.4 in NNE 3.4 mph 7.4 mph 67.8% 0 in
13:39 58.8 °F 48.4 °F 30.4 in NNE 3.6 mph 7.6 mph 68% 0 in
13:44 59.2 °F 48.6 °F 30.3 in NNE 4 mph 8.1 mph 68% 0 in
13:49 59.2 °F 48.6 °F 30.3 in NE 4.3 mph 9.2 mph 68% 0 in
13:54 59.4 °F 48.7 °F 30.3 in NE 5 mph 10.4 mph 68% 0 in
13:59 59.4 °F 48.9 °F 30.3 in NNE 5.4 mph 11.8 mph 68% 0 in
14:04 59.5 °F 48.9 °F 30.3 in NNE 6 mph 13 mph 68.1% 0 in
14:09 59.5 °F 49.5 °F 30.3 in NNE 6.2 mph 13 mph 69% 0 in
14:14 59.9 °F 49.8 °F 30.3 in NE 6.6 mph 12.7 mph 69% 0 in
14:19 60.3 °F 50.2 °F 30.3 in NE 6.9 mph 13.8 mph 69.3% 0 in
14:24 60.6 °F 50.7 °F 30.3 in NE 7.2 mph 14 mph 69.9% 0 in
14:29 61 °F 50.5 °F 30.3 in NE 7.4 mph 15 mph 68.6% 0 in
14:34 61 °F 50.4 °F 30.3 in NE 7.8 mph 15 mph 68% 0 in
14:39 61.2 °F 50.5 °F 30.3 in NE 8.1 mph 14 mph 68.3% 0 in
14:44 61.2 °F 50.2 °F 30.3 in NE 8.3 mph 15 mph 67.5% 0 in
14:49 61.2 °F 50.4 °F 30.3 in NNE 8.5 mph 15 mph 67.5% 0 in
14:54 61.2 °F 50.5 °F 30.3 in NNE 8.6 mph 15.2 mph 68% 0 in
14:59 61.2 °F 50.5 °F 30.3 in NNE 8.7 mph 15.2 mph 68% 0 in
15:04 61 °F 50.7 °F 30.3 in NNE 9.5 mph 15.2 mph 68.8% 0 in
15:09 60.8 °F 50.7 °F 30.3 in NNE 10 mph 17.5 mph 69.1% 0 in
15:14 60.6 °F 50.5 °F 30.3 in NE 10 mph 17 mph 69.5% 0 in
15:19 60.6 °F 51.1 °F 30.3 in NNE 10 mph 15 mph 70.5% 0 in
15:24 60.6 °F 51.3 °F 30.3 in NE 9.2 mph 16.1 mph 70.9% 0 in
15:29 60.8 °F 51.1 °F 30.3 in NNE 8.7 mph 16 mph 70.6% 0 in
15:34 60.8 °F 51.1 °F 30.3 in NE 8.3 mph 15 mph 70.3% 0 in
15:39 60.8 °F 50.9 °F 30.3 in NE 8.1 mph 15 mph 69.7% 0 in
15:44 61 °F 50.5 °F 30.3 in NE 7.6 mph 14 mph 68.7% 0 in
15:49 60.8 °F 49.8 °F 30.3 in NE 7.4 mph 16.1 mph 67% 0 in
15:54 61 °F 50 °F 30.3 in NE 7.8 mph 16 mph 67.3% 0 in
15:59 60.8 °F 49.6 °F 30.3 in NE 8.1 mph 13 mph 66.6% 0 in
16:04 60.8 °F 49.8 °F 30.3 in NE 7.8 mph 13 mph 67% 0 in
16:09 61 °F 49.6 °F 30.3 in NE 7.6 mph 11.5 mph 66.5% 0 in
16:14 61 °F 49.3 °F 30.3 in NE 6.7 mph 12.7 mph 65.7% 0 in
16:19 60.6 °F 49.1 °F 30.3 in NE 6.2 mph 13 mph 65.5% 0 in
16:24 60.6 °F 49.3 °F 30.3 in NE 6.6 mph 12 mph 66% 0 in
16:29 60.6 °F 49.1 °F 30.3 in NE 6.9 mph 12.7 mph 65.7% 0 in
16:34 60.6 °F 49.5 °F 30.3 in ENE 6.3 mph 13 mph 66.7% 0 in
16:39 60.6 °F 49.8 °F 30.3 in NE 5.9 mph 8.5 mph 67.4% 0 in
16:44 60.4 °F 49.8 °F 30.3 in NE 5.2 mph 11.5 mph 68.1% 0 in
16:49 60.3 °F 50 °F 30.3 in NE 4.7 mph 12 mph 69% 0 in
16:54 60.1 °F 50.2 °F 30.3 in NE 5.5 mph 10.7 mph 69.5% 0 in
16:59 59.9 °F 50 °F 30.3 in NE 5.9 mph 11 mph 70% 0 in
17:04 59.7 °F 50 °F 30.3 in NE 5.9 mph 10.4 mph 70% 0 in
17:09 59.7 °F 49.8 °F 30.4 in NE 5.9 mph 10 mph 70% 0 in
17:14 59.5 °F 50 °F 30.4 in NE 4.7 mph 8.1 mph 70.7% 0 in
17:19 59.5 °F 50 °F 30.4 in NE 4 mph 8 mph 71% 0 in
17:24 59.4 °F 50 °F 30.4 in ENE 3.8 mph 7 mph 71% 0 in
17:29 59.2 °F 49.8 °F 30.4 in ENE 3.6 mph 7 mph 71% 0 in
17:34 59.2 °F 49.8 °F 30.4 in ESE 3.3 mph 5 mph 71% 0 in
17:39 58.8 °F 49.5 °F 30.4 in ENE 3.1 mph 6.9 mph 71% 0 in
17:44 58.6 °F 49.3 °F 30.4 in ENE 3.1 mph 7 mph 71% 0 in
17:49 58.5 °F 49.5 °F 30.4 in Este 3.1 mph 5.9 mph 71.9% 0 in
17:54 58.1 °F 49.3 °F 30.4 in Este 3.1 mph 7.4 mph 72.3% 0 in
17:59 57.7 °F 49.3 °F 30.4 in Este 3.1 mph 7 mph 73.1% 0 in
18:04 57.6 °F 49.3 °F 30.4 in Este 3.9 mph 7 mph 74% 0 in
18:09 57.4 °F 49.3 °F 30.4 in ENE 4.3 mph 6.2 mph 74.5% 0 in
18:14 57 °F 49.3 °F 30.4 in NE 3.6 mph 6 mph 75% 0 in
18:19 56.8 °F 49.5 °F 30.4 in NE 3.1 mph 6 mph 75.9% 0 in
18:24 56.7 °F 49.3 °F 30.4 in NE 3.9 mph 7.6 mph 76.2% 0 in
18:29 56.7 °F 49.5 °F 30.4 in NE 4.3 mph 9.2 mph 77.1% 0 in
18:34 56.1 °F 49.5 °F 30.4 in NE 4.8 mph 9 mph 78.1% 0 in
18:39 55.8 °F 49.3 °F 30.4 in NE 5.2 mph 7 mph 79% 0 in
18:44 55.2 °F 49.3 °F 30.4 in NE 4.7 mph 8.1 mph 80.1% 0 in
18:49 54.9 °F 49.3 °F 30.4 in NNE 4.3 mph 8.1 mph 81.6% 0 in
18:54 54.3 °F 49.3 °F 30.4 in NE 4.8 mph 8 mph 82.7% 0 in
18:59 54.1 °F 49.1 °F 30.4 in NE 5.2 mph 6.9 mph 83.4% 0 in
19:04 54 °F 49.1 °F 30.4 in NNE 4.6 mph 8.5 mph 84.1% 0 in
19:09 53.6 °F 49.1 °F 30.4 in NNE 4.3 mph 9 mph 85% 0 in
19:14 53.2 °F 49.1 °F 30.4 in NNE 4.8 mph 8 mph 85.6% 0 in
19:19 53.2 °F 49.3 °F 30.4 in NNE 5.2 mph 6 mph 86% 0 in
19:24 53.2 °F 49.5 °F 30.4 in NNE 4.2 mph 6.2 mph 86.9% 0 in
19:29 53.1 °F 49.3 °F 30.4 in NNE 3.6 mph 8.1 mph 87% 0 in
19:34 52.9 °F 49.5 °F 30.4 in NNE 4.2 mph 8.1 mph 87.9% 0 in
19:39 52.9 °F 49.5 °F 30.4 in NE 4.7 mph 9.2 mph 88% 0 in
19:44 52.9 °F 49.6 °F 30.4 in NE 4.7 mph 9 mph 88.8% 0 in
19:49 52.9 °F 49.6 °F 30.4 in NE 4.7 mph 8 mph 89% 0 in
19:54 52.9 °F 49.6 °F 30.4 in NE 4.3 mph 6 mph 89% 0 in
19:59 52.9 °F 49.6 °F 30.4 in NE 4 mph 6 mph 89% 0 in
20:04 52.9 °F 49.6 °F 30.4 in NE 3.7 mph 5.8 mph 89% 0 in
20:09 52.7 °F 49.5 °F 30.4 in NE 3.6 mph 6 mph 89% 0 in
20:14 52.5 °F 49.6 °F 30.4 in NE 3.6 mph 6 mph 89.8% 0 in
20:19 52.3 °F 49.6 °F 30.4 in NNE 3.6 mph 5.8 mph 90% 0 in
20:24 52.3 °F 49.3 °F 30.4 in NNE 3.3 mph 6 mph 89.2% 0 in
20:29 52.2 °F 49.1 °F 30.4 in NNE 3.1 mph 6 mph 89.9% 0 in
20:34 51.8 °F 49.1 °F 30.4 in NE 3.1 mph 6 mph 90% 0 in
20:39 51.8 °F 49.1 °F 30.4 in NE 3.1 mph 5 mph 90.1% 0 in
20:44 51.6 °F 49.1 °F 30.4 in NE 2.4 mph 4 mph 91% 0 in
20:49 51.6 °F 49.1 °F 30.4 in NE 2 mph 4 mph 91% 0 in
20:54 51.6 °F 49.1 °F 30.4 in NNE 2 mph 5.2 mph 91% 0 in
20:59 51.4 °F 48.9 °F 30.4 in NNE 2 mph 5 mph 91% 0 in
21:04 51.3 °F 48.7 °F 30.4 in NE 2.7 mph 5.2 mph 91% 0 in
21:09 51.3 °F 48.7 °F 30.4 in NE 3.1 mph 5 mph 91% 0 in
21:14 51.3 °F 48.7 °F 30.4 in NE 3 mph 4 mph 91% 0 in
21:19 51.3 °F 48.7 °F 30.4 in NE 2.9 mph 3.5 mph 91% 0 in
21:24 51.1 °F 48.6 °F 30.4 in NNE 2.3 mph 4.6 mph 91% 0 in
21:29 50.9 °F 48.4 °F 30.4 in NE 2 mph 5 mph 91% 0 in
21:34 50.7 °F 48.2 °F 30.4 in NE 2.2 mph 5 mph 91% 0 in
21:39 50.5 °F 48 °F 30.4 in NE 2.4 mph 4.6 mph 91% 0 in
21:44 50.4 °F 47.8 °F 30.4 in NNE 2.2 mph 5 mph 91% 0 in
21:49 50.2 °F 47.7 °F 30.4 in NNE 2 mph 5 mph 91% 0 in
21:54 50.2 °F 47.7 °F 30.4 in NNE 2.2 mph 5 mph 91.5% 0 in
21:59 49.8 °F 47.7 °F 30.4 in NNE 2.4 mph 4.7 mph 92% 0 in
22:04 49.8 °F 47.7 °F 30.4 in NE 2.2 mph 5 mph 92% 0 in
22:09 49.6 °F 47.5 °F 30.4 in NE 2 mph 5 mph 92% 0 in
22:14 49.6 °F 47.5 °F 30.4 in ENE 2.2 mph 5 mph 92% 0 in
22:19 49.5 °F 47.3 °F 30.4 in ESE 2.4 mph 5.2 mph 92% 0 in
22:24 49.5 °F 47.1 °F 30.4 in ESE 2.2 mph 5 mph 92% 0 in
22:29 49.5 °F 47.1 °F 30.4 in SE 2 mph 4.6 mph 92% 0 in
22:34 49.5 °F 47.3 °F 30.4 in SE 2 mph 5 mph 92% 0 in
22:39 49.8 °F 47.7 °F 30.4 in SSE 2 mph 6.9 mph 92.4% 0 in
22:44 49.8 °F 47.7 °F 30.4 in Sur 3.2 mph 7 mph 92% 0 in
22:49 49.8 °F 47.7 °F 30.4 in Sur 4 mph 5.9 mph 92% 0 in
22:54 49.8 °F 47.7 °F 30.4 in Sur 3.5 mph 6 mph 92% 0 in
22:59 49.8 °F 47.7 °F 30.4 in Sur 3.1 mph 6 mph 92% 0 in
23:04 50 °F 47.8 °F 30.4 in SSO 3 mph 5.2 mph 92% 0 in
23:09 50 °F 47.5 °F 30.4 in SSO 2.9 mph 5 mph 91.1% 0 in
23:14 50 °F 47.5 °F 30.4 in SSO 2.9 mph 5 mph 91% 0 in
23:19 50 °F 47.5 °F 30.4 in SSO 2.9 mph 4 mph 91% 0 in
23:24 50 °F 47.5 °F 30.4 in SSO 2.4 mph 5.2 mph 91% 0 in
23:29 50 °F 47.5 °F 30.4 in SO 2 mph 5 mph 91% 0 in
23:34 50 °F 47.5 °F 30.4 in SO 2.5 mph 5 mph 91% 0 in
23:39 50.2 °F 47.7 °F 30.4 in SO 2.9 mph 5 mph 91% 0 in
23:44 50.2 °F 47.7 °F 30.4 in SO 2.4 mph 4 mph 91% 0 in
23:49 50 °F 47.5 °F 30.4 in SO 2 mph 4 mph 91% 0 in
23:54 50 °F 47.5 °F 30.4 in SSO 0.8 mph 4.6 mph 91% 0 in
23:59 49.6 °F 46.9 °F 30.4 in Calm   5 mph 90% 0 in
Murcia-Puente Tocinos, España
Compliments of Weather Underground - 3 mb

La estación de MeteoMurcia.com, publica sus datos en los siguientes proyectos:

Weather Underground PWS IMURCIAP2 Meteoclimatic www.awekas.at

W3Counter
Web Analytics